Terminal Aerodrome Forecast
Issued by NWS Sterling, VA

Home | Current Version | Previous Version | Text Only | Print | Product List | Glossary On
Versions: 1 2 3 4 5 6 7 8 9 10 11 12 13 14
000
FTUS41 KLWX 230540
TAFCHO
TAF
KCHO 230540Z 2306/2406 06006KT P6SM SCT050
     FM231500 12006KT P6SM SCT150
     FM231800 15012G22KT P6SM BKN050
     FM240300 13012KT 6SM -RA OVC030=

USA.gov is the U.S. government's official web portal to all federal, state and local government web resources and services.